Time;durP1;ratioP1;P1;durP2;ratioP2;P2;SDS_P1;SDS_P2;PMS_P1;PMS_P2;Temp;Humidity;BMP_temperature;BMP_pressure;BME280_temperature;BME280_humidity;BME280_pressure;Samples;Min_cycle;Max_cycle;Signal;HPM_P1;HPM_P2
2023/07/18 00:00:33;;;;;;;0.50;0.47;;;17.00;74.90;;;;;;5076044;28;20040;-60
2023/07/18 00:02:59;;;;;;;1.65;0.45;;;17.00;75.00;;;;;;5084458;28;20096;-60
2023/07/18 00:05:25;;;;;;;0.57;0.35;;;17.00;75.00;;;;;;5080764;28;20036;-59
2023/07/18 00:07:51;;;;;;;0.45;0.45;;;17.00;75.00;;;;;;5080737;28;20271;-60
2023/07/18 00:10:19;;;;;;;0.50;0.40;;;17.00;75.10;;;;;;5075311;28;20395;-60
2023/07/18 00:12:45;;;;;;;1.63;0.80;;;17.00;75.20;;;;;;5076157;28;20036;-59
2023/07/18 00:15:12;;;;;;;1.42;0.40;;;16.90;75.20;;;;;;5081317;28;20036;-60
2023/07/18 00:17:39;;;;;;;0.40;0.40;;;16.90;75.20;;;;;;5082048;28;20492;-60
2023/07/18 00:20:09;;;;;;;2.85;0.68;;;16.90;75.40;;;;;;5076866;28;20487;-60
2023/07/18 00:22:43;;;;;;;0.35;0.35;;;16.90;75.30;;;;;;5079544;28;20029;-60
2023/07/18 00:25:13;;;;;;;0.50;0.50;;;16.90;75.40;;;;;;5071989;28;20850;-60
2023/07/18 00:27:42;;;;;;;0.40;0.40;;;16.80;75.30;;;;;;5077592;28;20117;-59
2023/07/18 00:30:12;;;;;;;1.17;0.45;;;16.80;75.40;;;;;;5085167;28;20031;-59
2023/07/18 00:32:38;;;;;;;0.43;0.43;;;16.80;75.40;;;;;;5078314;28;20029;-60
2023/07/18 00:35:04;;;;;;;1.80;0.40;;;16.80;75.60;;;;;;5081216;28;20019;-60
2023/07/18 00:37:31;;;;;;;1.60;0.32;;;16.80;75.50;;;;;;5075871;28;20036;-60
2023/07/18 00:39:56;;;;;;;0.40;0.40;;;16.70;75.60;;;;;;5077570;28;20070;-60
2023/07/18 00:42:23;;;;;;;0.47;0.47;;;16.70;75.60;;;;;;5075273;28;20056;-60
2023/07/18 00:44:49;;;;;;;0.52;0.30;;;16.70;75.60;;;;;;5070319;28;20020;-59
2023/07/18 00:47:15;;;;;;;2.58;0.50;;;16.70;75.60;;;;;;5076509;28;20110;-59
2023/07/18 00:49:41;;;;;;;0.90;0.38;;;16.70;75.60;;;;;;5061967;28;20052;-59
2023/07/18 00:52:08;;;;;;;0.25;0.25;;;16.60;75.60;;;;;;5071447;28;20063;-59
2023/07/18 00:54:34;;;;;;;0.68;0.50;;;16.60;75.70;;;;;;5077001;28;20052;-59
2023/07/18 00:57:00;;;;;;;1.58;0.30;;;16.60;76.00;;;;;;5080753;28;20036;-58
2023/07/18 00:59:27;;;;;;;0.88;0.70;;;16.50;75.90;;;;;;5079197;28;20426;-60
2023/07/18 01:01:53;;;;;;;0.20;0.20;;;16.50;75.90;;;;;;5073209;28;20047;-60
2023/07/18 01:04:19;;;;;;;0.45;0.45;;;16.50;75.80;;;;;;5077911;28;20043;-59
2023/07/18 01:06:46;;;;;;;1.60;0.50;;;16.40;75.80;;;;;;5066547;28;20447;-59
2023/07/18 01:09:12;;;;;;;1.95;1.00;;;16.40;75.80;;;;;;5075253;28;20501;-60
2023/07/18 01:11:37;;;;;;;0.65;0.50;;;16.40;75.90;;;;;;5073348;28;20072;-59
2023/07/18 01:14:03;;;;;;;0.70;0.38;;;16.40;75.90;;;;;;5074426;28;20060;-59
2023/07/18 01:16:29;;;;;;;0.40;0.40;;;16.30;75.90;;;;;;5071349;28;20479;-59
2023/07/18 01:18:55;;;;;;;2.05;0.40;;;16.30;75.90;;;;;;5078070;28;20131;-59
2023/07/18 01:21:21;;;;;;;0.38;0.38;;;16.30;75.90;;;;;;5071932;28;20446;-59
2023/07/18 01:23:47;;;;;;;1.00;0.50;;;16.20;75.80;;;;;;5075821;28;20025;-59
2023/07/18 01:26:13;;;;;;;1.30;0.55;;;16.20;75.80;;;;;;5080003;28;20094;-60
2023/07/18 01:28:39;;;;;;;1.27;0.50;;;16.20;75.80;;;;;;5083529;28;20436;-60
2023/07/18 01:31:06;;;;;;;0.93;0.40;;;16.20;75.90;;;;;;5084285;28;20383;-59
2023/07/18 01:33:32;;;;;;;1.23;0.60;;;16.20;75.90;;;;;;5072914;28;20025;-60
2023/07/18 01:35:58;;;;;;;0.32;0.30;;;16.10;75.90;;;;;;5077417;28;20055;-59
2023/07/18 01:38:29;;;;;;;0.30;0.30;;;16.10;76.00;;;;;;5082666;28;20028;-60
2023/07/18 01:40:58;;;;;;;0.75;0.55;;;16.10;75.90;;;;;;5075653;28;20471;-59
2023/07/18 01:43:24;;;;;;;0.65;0.43;;;16.00;75.90;;;;;;5077764;28;20032;-59
2023/07/18 01:45:50;;;;;;;0.50;0.50;;;16.00;76.00;;;;;;5073304;28;20498;-59
2023/07/18 01:48:16;;;;;;;1.00;0.40;;;16.00;76.10;;;;;;5076862;28;20053;-59
2023/07/18 01:50:43;;;;;;;0.90;0.50;;;15.90;76.10;;;;;;5073809;28;20064;-59
2023/07/18 01:53:10;;;;;;;1.00;0.50;;;15.90;76.20;;;;;;5079357;28;20024;-59
2023/07/18 01:55:40;;;;;;;0.30;0.30;;;15.90;76.20;;;;;;5076215;28;20468;-60
2023/07/18 01:58:06;;;;;;;2.42;0.60;;;15.80;76.20;;;;;;5084395;28;20082;-60
2023/07/18 02:00:32;;;;;;;0.50;0.45;;;15.80;76.30;;;;;;5077699;28;20430;-60
2023/07/18 02:02:58;;;;;;;1.02;0.63;;;15.90;76.40;;;;;;5083251;28;20046;-59
2023/07/18 02:05:25;;;;;;;0.38;0.38;;;15.90;76.40;;;;;;5074498;28;20028;-60
2023/07/18 02:07:52;;;;;;;0.40;0.40;;;15.80;76.20;;;;;;5063991;28;20036;-60
2023/07/18 02:10:19;;;;;;;1.38;0.75;;;15.80;76.30;;;;;;5069840;28;20530;-60
2023/07/18 02:12:45;;;;;;;1.67;0.70;;;15.80;76.20;;;;;;5072389;28;20064;-59
2023/07/18 02:15:13;;;;;;;0.95;0.45;;;15.80;76.20;;;;;;5073923;28;20039;-60
2023/07/18 02:17:39;;;;;;;0.70;0.60;;;15.80;76.30;;;;;;5085385;28;20133;-59
2023/07/18 02:20:07;;;;;;;0.60;0.50;;;15.80;76.30;;;;;;5079013;28;20044;-60
2023/07/18 02:22:36;;;;;;;0.30;0.30;;;15.80;76.30;;;;;;5081725;28;20032;-60
2023/07/18 02:25:03;;;;;;;2.13;0.47;;;15.70;76.20;;;;;;5080026;28;20024;-60
2023/07/18 02:27:29;;;;;;;0.60;0.60;;;15.70;76.30;;;;;;5083007;28;20032;-59
2023/07/18 02:29:55;;;;;;;0.47;0.47;;;15.70;76.20;;;;;;5081733;28;20047;-59
2023/07/18 02:32:21;;;;;;;0.82;0.40;;;15.70;76.20;;;;;;5086237;28;20083;-59
2023/07/18 02:34:48;;;;;;;1.85;0.52;;;15.70;76.30;;;;;;5086726;28;20020;-59
2023/07/18 02:37:13;;;;;;;0.35;0.35;;;15.70;76.30;;;;;;5072025;28;20098;-58
2023/07/18 02:39:39;;;;;;;0.40;0.40;;;15.70;76.40;;;;;;5080415;28;20044;-59
2023/07/18 02:42:08;;;;;;;0.57;0.40;;;15.70;76.40;;;;;;5079928;28;20028;-59
2023/07/18 02:44:33;;;;;;;0.30;0.30;;;15.60;76.30;;;;;;5079658;28;20024;-59
2023/07/18 02:46:59;;;;;;;1.15;0.88;;;15.60;76.40;;;;;;5082838;28;20037;-59
2023/07/18 02:49:25;;;;;;;0.47;0.45;;;15.60;76.40;;;;;;5089239;28;20031;-58
2023/07/18 02:51:50;;;;;;;0.50;0.50;;;15.60;76.40;;;;;;5079073;28;20043;-59
2023/07/18 02:54:17;;;;;;;1.05;0.70;;;15.60;76.40;;;;;;5080537;28;20107;-59
2023/07/18 02:56:43;;;;;;;0.50;0.50;;;15.60;76.50;;;;;;5074585;28;20020;-60
2023/07/18 02:59:09;;;;;;;0.70;0.70;;;15.50;76.40;;;;;;5078364;28;20040;-59
2023/07/18 03:01:34;;;;;;;0.50;0.50;;;15.50;76.40;;;;;;5080588;28;20082;-59
2023/07/18 03:04:00;;;;;;;1.55;1.08;;;15.50;76.50;;;;;;5081707;28;20419;-59
2023/07/18 03:06:27;;;;;;;1.17;0.43;;;15.40;76.50;;;;;;5082167;28;20033;-59
2023/07/18 03:08:53;;;;;;;0.70;0.45;;;15.40;76.60;;;;;;5082568;28;20031;-60
2023/07/18 03:11:22;;;;;;;2.20;0.43;;;15.30;76.70;;;;;;5079692;28;20441;-59
2023/07/18 03:13:48;;;;;;;0.60;0.38;;;15.30;76.80;;;;;;5069543;28;20417;-59
2023/07/18 03:16:13;;;;;;;1.35;0.45;;;15.30;76.80;;;;;;5071972;28;20150;-59
2023/07/18 03:18:39;;;;;;;0.30;0.30;;;15.30;76.90;;;;;;5071348;28;20040;-59
2023/07/18 03:21:05;;;;;;;0.60;0.50;;;15.30;76.90;;;;;;5080703;28;20028;-60
2023/07/18 03:23:30;;;;;;;0.98;0.60;;;15.30;76.80;;;;;;5073202;28;20126;-60
2023/07/18 03:25:56;;;;;;;0.73;0.45;;;15.30;76.80;;;;;;5080385;28;20167;-59
2023/07/18 03:28:21;;;;;;;2.70;1.00;;;15.30;76.70;;;;;;5083381;28;20040;-59
2023/07/18 03:30:47;;;;;;;1.02;0.80;;;15.30;76.70;;;;;;5080079;28;20028;-59
2023/07/18 03:33:15;;;;;;;0.60;0.32;;;15.30;76.70;;;;;;5074387;28;20539;-59
2023/07/18 03:35:40;;;;;;;0.50;0.50;;;15.20;76.70;;;;;;5071581;28;20127;-59
2023/07/18 03:38:06;;;;;;;0.50;0.43;;;15.20;76.70;;;;;;5075157;28;20116;-60
2023/07/18 03:40:32;;;;;;;1.27;0.50;;;15.20;76.80;;;;;;5078598;28;20024;-59
2023/07/18 03:42:57;;;;;;;0.52;0.50;;;15.20;76.80;;;;;;5058781;28;20123;-60
2023/07/18 03:45:23;;;;;;;1.45;0.50;;;15.20;76.80;;;;;;5080264;28;20115;-60
2023/07/18 03:47:48;;;;;;;0.80;0.57;;;15.20;76.90;;;;;;5071571;28;20121;-60
2023/07/18 03:50:18;;;;;;;0.60;0.50;;;15.20;77.00;;;;;;5075476;28;20048;-60
2023/07/18 03:52:44;;;;;;;1.83;0.60;;;15.10;77.00;;;;;;5079961;28;20482;-59
2023/07/18 03:55:10;;;;;;;0.47;0.47;;;15.10;77.00;;;;;;5081489;28;20117;-59
2023/07/18 03:57:36;;;;;;;1.15;0.82;;;15.10;77.00;;;;;;5079968;28;20025;-60
2023/07/18 04:00:13;;;;;;;1.05;0.77;;;15.10;77.00;;;;;;5073389;28;20031;-60
2023/07/18 04:02:39;;;;;;;1.48;0.63;;;15.10;77.00;;;;;;5075653;28;20032;-59
2023/07/18 04:05:05;;;;;;;0.85;0.43;;;15.10;77.10;;;;;;5076231;28;20029;-59
2023/07/18 04:07:31;;;;;;;0.82;0.63;;;15.10;77.00;;;;;;5080363;28;20035;-59
2023/07/18 04:09:57;;;;;;;0.30;0.30;;;15.10;77.20;;;;;;5077223;28;20070;-59
2023/07/18 04:12:23;;;;;;;0.35;0.30;;;15.10;77.10;;;;;;5071376;28;20045;-59
2023/07/18 04:14:48;;;;;;;1.42;0.52;;;15.10;77.10;;;;;;5074418;28;20052;-59
2023/07/18 04:17:14;;;;;;;0.30;0.25;;;15.10;77.20;;;;;;5072807;28;20112;-59
2023/07/18 04:19:40;;;;;;;0.30;0.30;;;15.10;77.20;;;;;;5071111;28;20063;-59
2023/07/18 04:22:06;;;;;;;1.30;0.52;;;15.10;77.30;;;;;;5071842;28;20067;-59
2023/07/18 04:24:31;;;;;;;2.55;0.73;;;15.20;77.30;;;;;;5076596;28;20033;-59
2023/07/18 04:26:57;;;;;;;0.60;0.60;;;15.20;77.30;;;;;;5067649;28;20059;-59
2023/07/18 04:29:24;;;;;;;0.50;0.50;;;15.20;77.40;;;;;;5073376;28;20070;-60
2023/07/18 04:31:50;;;;;;;1.08;0.60;;;15.20;77.40;;;;;;5073634;28;20112;-60
2023/07/18 04:34:17;;;;;;;1.60;1.08;;;15.20;77.40;;;;;;5068231;28;20115;-60
2023/07/18 04:36:43;;;;;;;0.95;0.70;;;15.30;77.60;;;;;;5076641;28;20028;-60
2023/07/18 04:39:09;;;;;;;0.30;0.30;;;15.30;77.40;;;;;;5076648;28;20377;-60
2023/07/18 04:41:35;;;;;;;0.77;0.77;;;15.30;77.40;;;;;;5072239;28;20078;-60
2023/07/18 04:44:01;;;;;;;1.08;0.90;;;15.30;77.50;;;;;;5074461;28;20119;-59
2023/07/18 04:46:27;;;;;;;0.85;0.40;;;15.40;77.50;;;;;;5071483;28;20025;-60
2023/07/18 04:48:53;;;;;;;0.77;0.60;;;15.30;77.50;;;;;;5072982;28;20029;-59
2023/07/18 04:51:18;;;;;;;0.93;0.50;;;15.40;77.60;;;;;;5082291;28;20032;-59
2023/07/18 04:53:44;;;;;;;1.15;0.50;;;15.40;77.60;;;;;;5080080;28;20082;-59
2023/07/18 04:56:09;;;;;;;0.70;0.60;;;15.50;77.60;;;;;;5080686;28;20024;-59
2023/07/18 04:58:35;;;;;;;0.55;0.55;;;15.50;77.60;;;;;;5079137;28;20094;-60
2023/07/18 05:01:02;;;;;;;0.47;0.45;;;15.50;77.70;;;;;;5080386;28;20028;-60
2023/07/18 05:03:28;;;;;;;1.40;0.95;;;15.60;77.70;;;;;;5075621;28;20032;-60
2023/07/18 05:05:55;;;;;;;0.70;0.50;;;15.60;77.60;;;;;;5082619;28;20025;-59
2023/07/18 05:08:21;;;;;;;0.60;0.35;;;15.70;77.70;;;;;;5077589;28;20029;-60
2023/07/18 05:10:46;;;;;;;1.48;0.60;;;15.70;77.70;;;;;;5082564;28;20374;-60
2023/07/18 05:13:13;;;;;;;0.40;0.40;;;15.80;77.70;;;;;;5081222;28;20097;-60
2023/07/18 05:15:41;;;;;;;0.40;0.40;;;15.90;77.70;;;;;;5075130;28;20028;-60
2023/07/18 05:18:07;;;;;;;0.77;0.65;;;16.00;77.70;;;;;;5072851;28;20032;-60
2023/07/18 05:20:33;;;;;;;0.30;0.30;;;16.00;77.50;;;;;;5072583;28;20084;-60
2023/07/18 05:22:59;;;;;;;1.15;0.63;;;16.10;77.50;;;;;;5071252;28;20196;-60
2023/07/18 05:25:25;;;;;;;0.60;0.60;;;16.20;77.50;;;;;;5071048;28;20092;-61
2023/07/18 05:27:51;;;;;;;0.45;0.45;;;16.30;77.40;;;;;;5073408;28;20040;-60
2023/07/18 05:30:18;;;;;;;0.88;0.68;;;16.40;77.40;;;;;;5073226;28;20029;-61
2023/07/18 05:32:45;;;;;;;3.95;0.85;;;16.50;77.40;;;;;;5077913;28;20356;-61
2023/07/18 05:35:13;;;;;;;2.28;0.80;;;16.60;77.20;;;;;;5070476;28;20029;-60
2023/07/18 05:37:41;;;;;;;4.25;1.30;;;16.80;77.20;;;;;;5081458;28;20057;-61
2023/07/18 05:40:09;;;;;;;2.67;1.02;;;16.80;77.00;;;;;;5074791;28;20114;-60
2023/07/18 05:42:36;;;;;;;2.35;1.25;;;16.90;76.90;;;;;;5070608;28;20036;-60
2023/07/18 05:45:01;;;;;;;2.03;0.80;;;17.00;76.70;;;;;;5078464;28;20036;-61
2023/07/18 05:47:27;;;;;;;1.02;0.93;;;17.00;76.70;;;;;;5077171;28;20032;-61
2023/07/18 05:49:53;;;;;;;1.35;0.75;;;17.00;76.70;;;;;;5072114;28;20060;-61
2023/07/18 05:52:18;;;;;;;1.20;0.80;;;17.00;76.70;;;;;;5081112;28;20105;-61
2023/07/18 05:54:45;;;;;;;1.98;1.00;;;17.10;76.80;;;;;;5079864;28;20024;-60
2023/07/18 05:57:10;;;;;;;1.00;0.63;;;17.10;76.70;;;;;;5080513;28;20050;-59
2023/07/18 05:59:36;;;;;;;1.20;0.70;;;17.20;76.70;;;;;;5081477;28;20035;-59
2023/07/18 06:02:02;;;;;;;1.23;0.93;;;17.30;76.50;;;;;;5081280;28;20020;-58
2023/07/18 06:04:28;;;;;;;1.67;0.80;;;17.40;76.40;;;;;;5070670;28;20044;-59
2023/07/18 06:06:54;;;;;;;1.40;1.23;;;17.50;76.10;;;;;;5077463;28;20029;-59
2023/07/18 06:09:19;;;;;;;1.77;0.88;;;17.60;75.90;;;;;;5071702;28;20519;-59
2023/07/18 06:11:45;;;;;;;1.48;0.80;;;17.70;75.70;;;;;;5069090;28;20155;-59
2023/07/18 06:14:11;;;;;;;0.75;0.75;;;17.80;75.60;;;;;;5073495;28;20033;-59
2023/07/18 06:16:36;;;;;;;2.88;1.67;;;17.90;75.40;;;;;;5078726;28;20060;-59
2023/07/18 06:19:02;;;;;;;0.80;0.80;;;17.90;75.20;;;;;;5078860;28;20411;-59
2023/07/18 06:21:27;;;;;;;1.27;0.93;;;18.00;75.10;;;;;;5076715;28;20025;-59
2023/07/18 06:23:54;;;;;;;2.00;1.38;;;18.00;74.90;;;;;;5073770;28;20056;-59
2023/07/18 06:26:20;;;;;;;0.85;0.70;;;18.10;74.70;;;;;;5076966;28;20443;-59
2023/07/18 06:28:46;;;;;;;1.02;0.85;;;18.10;74.70;;;;;;5078443;28;20363;-59
2023/07/18 06:31:12;;;;;;;0.82;0.60;;;18.10;74.60;;;;;;5071967;28;20051;-59
2023/07/18 06:33:37;;;;;;;1.17;1.08;;;18.20;74.50;;;;;;5068747;28;20111;-58
2023/07/18 06:36:03;;;;;;;1.75;1.30;;;18.30;74.00;;;;;;5080730;28;20420;-59
2023/07/18 06:38:29;;;;;;;0.93;0.77;;;18.30;73.70;;;;;;5075035;28;20060;-58
2023/07/18 06:40:55;;;;;;;0.90;0.60;;;18.40;73.60;;;;;;5069817;28;20051;-59
2023/07/18 06:43:21;;;;;;;1.50;0.98;;;18.40;73.50;;;;;;5077639;28;20027;-59
2023/07/18 06:45:47;;;;;;;1.52;0.80;;;18.50;73.30;;;;;;5071861;28;20544;-59
2023/07/18 06:48:16;;;;;;;1.73;0.82;;;18.50;73.00;;;;;;5075752;28;20017;-59
2023/07/18 06:50:53;;;;;;;1.45;0.88;;;18.60;72.90;;;;;;5070405;28;20036;-59
2023/07/18 06:53:20;;;;;;;1.30;1.00;;;18.70;72.60;;;;;;5069090;28;20024;-59
2023/07/18 06:55:50;;;;;;;1.23;0.85;;;18.80;72.20;;;;;;5071709;28;20028;-59
2023/07/18 06:58:17;;;;;;;1.60;0.88;;;18.80;71.90;;;;;;5072499;28;20139;-59
2023/07/18 07:00:43;;;;;;;1.00;0.90;;;18.80;71.20;;;;;;5070559;28;20115;-59
2023/07/18 07:03:09;;;;;;;2.45;1.15;;;18.90;71.30;;;;;;5077931;28;20036;-59
2023/07/18 07:05:41;;;;;;;1.55;1.08;;;18.90;71.20;;;;;;5074901;28;20036;-59
2023/07/18 07:08:08;;;;;;;1.67;0.70;;;19.00;71.20;;;;;;5077369;28;20029;-59
2023/07/18 07:10:43;;;;;;;1.02;0.90;;;19.10;70.90;;;;;;5081334;28;20046;-59
2023/07/18 07:13:10;;;;;;;1.98;0.90;;;19.20;70.70;;;;;;5075462;28;20060;-59
2023/07/18 07:15:35;;;;;;;1.15;0.90;;;19.20;70.10;;;;;;5074777;28;20082;-59
2023/07/18 07:18:02;;;;;;;7.22;1.27;;;19.20;69.90;;;;;;5075641;28;20052;-59
2023/07/18 07:20:33;;;;;;;4.03;1.15;;;19.30;69.70;;;;;;5074656;28;20024;-59
2023/07/18 07:23:00;;;;;;;3.10;1.05;;;19.30;69.30;;;;;;5071245;28;20135;-58
2023/07/18 07:25:30;;;;;;;1.20;0.73;;;19.40;69.10;;;;;;5077764;28;20146;-59
2023/07/18 07:27:56;;;;;;;1.55;0.95;;;19.40;68.90;;;;;;5079023;28;20043;-59
2023/07/18 07:30:23;;;;;;;1.25;0.73;;;19.50;69.10;;;;;;5077563;28;20154;-59
2023/07/18 07:32:53;;;;;;;2.65;1.13;;;19.60;68.90;;;;;;5063782;28;20032;-59
2023/07/18 07:35:20;;;;;;;1.08;0.73;;;19.60;68.20;;;;;;5072976;28;20021;-59
2023/07/18 07:37:46;;;;;;;6.07;1.65;;;19.70;67.60;;;;;;5072726;28;20142;-59
2023/07/18 07:40:12;;;;;;;1.38;1.02;;;19.70;67.30;;;;;;5084539;28;20035;-59
2023/07/18 07:42:39;;;;;;;1.75;1.10;;;19.70;67.00;;;;;;5086964;28;20105;-59
2023/07/18 07:45:06;;;;;;;2.03;0.80;;;19.80;66.80;;;;;;5075853;28;20032;-58
2023/07/18 07:47:32;;;;;;;0.57;0.57;;;19.90;66.90;;;;;;5078225;28;20584;-59
2023/07/18 07:49:57;;;;;;;0.85;0.70;;;19.90;66.90;;;;;;5073162;28;20024;-58
2023/07/18 07:52:23;;;;;;;0.73;0.73;;;20.00;66.70;;;;;;5079121;28;20036;-59
2023/07/18 07:54:49;;;;;;;0.57;0.55;;;20.10;66.50;;;;;;5073461;28;20047;-59
2023/07/18 07:57:15;;;;;;;1.25;0.98;;;20.20;66.30;;;;;;5078360;28;20040;-58
2023/07/18 07:59:42;;;;;;;0.55;0.50;;;20.30;65.60;;;;;;5066640;28;20032;-60
2023/07/18 08:02:08;;;;;;;0.70;0.60;;;20.40;65.70;;;;;;5071187;28;20110;-60
2023/07/18 08:04:36;;;;;;;2.63;0.90;;;20.50;65.80;;;;;;5069166;28;20064;-60
2023/07/18 08:07:03;;;;;;;0.70;0.70;;;20.60;65.20;;;;;;5067379;28;20115;-59
2023/07/18 08:09:29;;;;;;;1.90;1.15;;;20.60;64.50;;;;;;5065858;28;20051;-62
2023/07/18 08:11:54;;;;;;;1.33;0.88;;;20.70;64.50;;;;;;5077114;28;20437;-59
2023/07/18 08:14:21;;;;;;;1.63;0.85;;;20.70;64.60;;;;;;5068939;28;20040;-59
2023/07/18 08:16:47;;;;;;;1.50;0.88;;;20.80;64.20;;;;;;5070284;28;20510;-59
2023/07/18 08:19:13;;;;;;;0.73;0.50;;;20.90;64.10;;;;;;5087172;28;20036;-59
2023/07/18 08:21:38;;;;;;;1.13;1.02;;;21.00;64.10;;;;;;5082157;28;20046;-58
2023/07/18 08:24:04;;;;;;;1.15;0.60;;;21.00;62.50;;;;;;5069760;28;20048;-58
2023/07/18 08:26:30;;;;;;;0.70;0.70;;;21.00;62.50;;;;;;5073983;28;20033;-58
2023/07/18 08:28:56;;;;;;;1.02;0.93;;;21.00;62.10;;;;;;5068881;28;20086;-58
2023/07/18 08:31:21;;;;;;;0.52;0.45;;;21.10;62.60;;;;;;5071319;28;20552;-58
2023/07/18 08:33:47;;;;;;;0.73;0.57;;;21.10;62.30;;;;;;5070042;28;20040;-59
2023/07/18 08:36:13;;;;;;;1.38;0.52;;;21.20;61.90;;;;;;5071953;28;20115;-59
2023/07/18 08:38:38;;;;;;;1.80;0.70;;;21.20;61.60;;;;;;5078209;28;20407;-59
2023/07/18 08:41:05;;;;;;;1.20;0.75;;;21.30;61.50;;;;;;5075533;28;20475;-59
2023/07/18 08:43:36;;;;;;;0.93;0.68;;;21.40;61.00;;;;;;5077802;28;20028;-59
2023/07/18 08:46:03;;;;;;;1.38;0.57;;;21.40;60.70;;;;;;5073639;28;20075;-59
2023/07/18 08:48:30;;;;;;;1.05;0.50;;;21.50;60.40;;;;;;5079839;28;20039;-59
2023/07/18 08:50:58;;;;;;;0.40;0.40;;;21.50;60.30;;;;;;5071375;28;20380;-60
2023/07/18 08:53:24;;;;;;;1.33;0.85;;;21.60;59.90;;;;;;5076035;28;20126;-59
2023/07/18 08:55:50;;;;;;;0.85;0.63;;;21.70;59.70;;;;;;5077829;28;20115;-59
2023/07/18 08:58:18;;;;;;;1.25;0.55;;;21.70;59.50;;;;;;5074963;28;20443;-58
2023/07/18 09:00:44;;;;;;;0.50;0.50;;;21.80;59.80;;;;;;5070827;28;20032;-58
2023/07/18 09:03:10;;;;;;;0.40;0.40;;;22.00;59.50;;;;;;5072667;28;20028;-59
2023/07/18 09:05:37;;;;;;;1.73;0.80;;;22.10;58.50;;;;;;5079393;28;20051;-58
2023/07/18 09:08:06;;;;;;;0.57;0.40;;;22.20;58.40;;;;;;5078200;28;20028;-58
2023/07/18 09:10:32;;;;;;;0.95;0.43;;;22.30;57.60;;;;;;5075393;28;20115;-58
2023/07/18 09:13:06;;;;;;;0.90;0.50;;;22.40;58.00;;;;;;5077829;28;20044;-58
2023/07/18 09:15:35;;;;;;;0.70;0.50;;;22.40;56.60;;;;;;5081832;28;20028;-58
2023/07/18 09:18:09;;;;;;;0.30;0.30;;;22.40;56.70;;;;;;5080230;28;20028;-59
2023/07/18 09:20:35;;;;;;;0.20;0.20;;;22.50;57.30;;;;;;5080177;28;20368;-59
2023/07/18 09:23:04;;;;;;;0.63;0.63;;;22.50;57.50;;;;;;5071866;28;20086;-59
2023/07/18 09:25:30;;;;;;;8.40;0.80;;;22.60;57.60;;;;;;5078286;28;20028;-58
2023/07/18 09:27:57;;;;;;;0.40;0.40;;;22.70;57.60;;;;;;5077886;28;20542;-58
2023/07/18 09:30:28;;;;;;;3.30;0.80;;;22.80;57.50;;;;;;5083401;28;20049;-59
2023/07/18 09:32:55;;;;;;;2.30;0.83;;;22.90;56.70;;;;;;5079489;28;20051;-59
2023/07/18 09:35:21;;;;;;;0.60;0.60;;;23.00;56.80;;;;;;5079533;28;20267;-58
2023/07/18 09:37:48;;;;;;;0.40;0.32;;;23.10;56.30;;;;;;5079639;28;20032;-58
2023/07/18 09:40:15;;;;;;;0.30;0.22;;;23.20;56.10;;;;;;5077217;28;20028;-59
2023/07/18 09:42:44;;;;;;;0.20;0.20;;;23.30;55.80;;;;;;5084199;28;20016;-59
2023/07/18 09:45:12;;;;;;;0.30;0.30;;;23.40;55.50;;;;;;5074477;28;20042;-59
2023/07/18 09:47:39;;;;;;;1.13;0.57;;;23.40;53.70;;;;;;5076945;28;20028;-59
2023/07/18 09:50:06;;;;;;;0.70;0.52;;;23.40;54.00;;;;;;5072714;28;20379;-58
2023/07/18 09:52:36;;;;;;;0.65;0.52;;;23.50;54.20;;;;;;5069163;28;20028;-59
2023/07/18 09:55:09;;;;;;;0.82;0.63;;;23.60;54.30;;;;;;5072243;28;20040;-60
2023/07/18 09:57:40;;;;;;;1.33;0.30;;;23.70;53.10;;;;;;5079249;28;20032;-59
2023/07/18 10:00:11;;;;;;;1.08;0.50;;;23.70;53.00;;;;;;5070761;28;20032;-58
2023/07/18 10:02:38;;;;;;;0.40;0.40;;;23.70;53.50;;;;;;5071153;28;20024;-59
2023/07/18 10:05:04;;;;;;;0.40;0.40;;;23.80;53.70;;;;;;5075975;28;20422;-59
2023/07/18 10:07:34;;;;;;;0.20;0.20;;;24.00;53.80;;;;;;5075565;28;20034;-58
2023/07/18 10:10:01;;;;;;;3.30;0.85;;;24.20;53.40;;;;;;5070729;28;20120;-59
2023/07/18 10:12:27;;;;;;;0.30;0.30;;;24.30;52.70;;;;;;5080237;28;20032;-59
2023/07/18 10:14:57;;;;;;;0.40;0.40;;;24.20;52.00;;;;;;5073791;28;20017;-60
2023/07/18 10:17:31;;;;;;;1.65;0.50;;;24.30;52.00;;;;;;5075787;28;20113;-60
2023/07/18 10:19:57;;;;;;;0.30;0.30;;;24.40;51.00;;;;;;5075630;28;20428;-60
2023/07/18 10:22:30;;;;;;;0.95;0.40;;;24.30;50.00;;;;;;5082588;28;20391;-60
2023/07/18 10:25:06;;;;;;;0.40;0.40;;;24.40;51.10;;;;;;5071213;28;20028;-59
2023/07/18 10:27:37;;;;;;;0.60;0.45;;;24.50;50.30;;;;;;5082924;28;20127;-60
2023/07/18 10:30:10;;;;;;;0.45;0.40;;;24.50;48.50;;;;;;5078770;28;20058;-60
2023/07/18 10:32:38;;;;;;;0.50;0.50;;;24.40;48.70;;;;;;5072959;28;20035;-58
2023/07/18 10:35:09;;;;;;;0.73;0.52;;;24.50;49.60;;;;;;5077972;28;20024;-59
2023/07/18 10:37:36;;;;;;;0.57;0.57;;;24.60;49.90;;;;;;5080028;28;20058;-59
2023/07/18 10:40:04;;;;;;;0.57;0.57;;;24.80;50.00;;;;;;5076165;28;20328;-59
2023/07/18 10:42:32;;;;;;;0.30;0.30;;;24.90;49.70;;;;;;5082564;28;20032;-59
2023/07/18 10:45:00;;;;;;;0.40;0.40;;;24.90;49.20;;;;;;5076861;28;20479;-59
2023/07/18 10:47:27;;;;;;;0.73;0.43;;;25.10;49.40;;;;;;5085512;28;20037;-59
2023/07/18 10:49:54;;;;;;;0.32;0.30;;;25.30;49.30;;;;;;5080635;28;20534;-59
2023/07/18 10:52:21;;;;;;;0.30;0.30;;;25.40;48.60;;;;;;5083937;28;20399;-60
2023/07/18 10:54:54;;;;;;;0.57;0.57;;;25.50;47.90;;;;;;5082487;28;20021;-60
2023/07/18 10:57:32;;;;;;;0.57;0.50;;;25.40;46.50;;;;;;5086051;28;20522;-60
2023/07/18 10:59:59;;;;;;;0.30;0.30;;;25.40;47.20;;;;;;5083119;28;20116;-60
2023/07/18 11:02:26;;;;;;;0.65;0.52;;;25.30;45.90;;;;;;5081579;28;20036;-60
2023/07/18 11:04:53;;;;;;;1.60;0.70;;;25.30;46.00;;;;;;5077588;28;20021;-60
2023/07/18 11:07:33;;;;;;;0.88;0.35;;;25.30;46.40;;;;;;5080873;28;20032;-60
2023/07/18 11:09:59;;;;;;;0.90;0.35;;;25.60;47.10;;;;;;5074025;28;20027;-60
2023/07/18 11:12:25;;;;;;;0.30;0.30;;;25.80;47.10;;;;;;5079356;28;20534;-60
2023/07/18 11:14:51;;;;;;;0.52;0.22;;;26.00;47.10;;;;;;5073621;28;20029;-60
2023/07/18 11:17:17;;;;;;;0.22;0.22;;;26.10;46.80;;;;;;5075222;28;20124;-60
2023/07/18 11:19:43;;;;;;;1.25;0.20;;;26.20;46.50;;;;;;5076183;28;20027;-60
2023/07/18 11:22:10;;;;;;;0.60;0.60;;;26.30;46.70;;;;;;5073120;28;20036;-60
2023/07/18 11:24:36;;;;;;;3.78;0.80;;;26.30;45.50;;;;;;5072144;28;20491;-60
2023/07/18 11:27:19;;;;;;;0.40;0.30;;;26.30;45.60;;;;;;5077837;28;20482;-60
2023/07/18 11:30:08;;;;;;;0.30;0.30;;;26.50;46.20;;;;;;5071829;28;20075;-60
2023/07/18 11:32:40;;;;;;;0.40;0.40;;;26.60;46.00;;;;;;5070979;28;20027;-60
2023/07/18 11:35:11;;;;;;;0.75;0.63;;;26.80;45.50;;;;;;5074732;28;20028;-59
2023/07/18 11:37:46;;;;;;;0.52;0.50;;;26.80;43.70;;;;;;5080533;28;20106;-59
2023/07/18 11:40:21;;;;;;;0.20;0.20;;;26.70;44.30;;;;;;5071639;28;20085;-60
2023/07/18 11:42:51;;;;;;;0.82;0.50;;;26.80;44.50;;;;;;5078767;28;20032;-59
2023/07/18 11:45:21;;;;;;;1.98;0.43;;;26.90;43.40;;;;;;5074828;28;20547;-60
2023/07/18 11:47:58;;;;;;;0.52;0.52;;;26.70;43.50;;;;;;5074750;28;20055;-60
2023/07/18 11:50:28;;;;;;;0.57;0.57;;;26.70;44.00;;;;;;5064576;28;20455;-60
2023/07/18 11:52:56;;;;;;;0.85;0.50;;;26.70;43.90;;;;;;5069843;28;20995;-60
2023/07/18 11:55:22;;;;;;;0.52;0.52;;;26.80;43.70;;;;;;5075217;28;20025;-59
2023/07/18 11:57:48;;;;;;;0.30;0.30;;;26.90;44.30;;;;;;5083340;28;20036;-60
2023/07/18 12:00:15;;;;;;;0.30;0.30;;;27.10;44.70;;;;;;5077697;28;20028;-60
2023/07/18 12:02:41;;;;;;;0.45;0.35;;;27.30;44.30;;;;;;5074537;28;20024;-60
2023/07/18 12:05:07;;;;;;;0.55;0.40;;;27.50;43.60;;;;;;5078843;28;20020;-60
2023/07/18 12:07:34;;;;;;;0.40;0.40;;;27.50;42.80;;;;;;5069829;28;20428;-60
2023/07/18 12:10:00;;;;;;;0.50;0.50;;;27.50;42.90;;;;;;5073767;28;20482;-60
2023/07/18 12:12:25;;;;;;;0.20;0.20;;;27.50;42.10;;;;;;5069186;28;20119;-60
2023/07/18 12:14:52;;;;;;;0.30;0.30;;;27.50;42.90;;;;;;5069692;28;20448;-59
2023/07/18 12:17:18;;;;;;;0.80;0.50;;;27.70;43.50;;;;;;5075569;28;20047;-59
2023/07/18 12:19:44;;;;;;;0.30;0.30;;;28.00;42.90;;;;;;5074262;28;20032;-60
2023/07/18 12:22:10;;;;;;;0.22;0.22;;;28.10;43.10;;;;;;5081123;28;20475;-59
2023/07/18 12:24:37;;;;;;;0.60;0.55;;;28.20;43.10;;;;;;5080902;28;20075;-60
2023/07/18 12:27:04;;;;;;;0.20;0.20;;;28.30;41.60;;;;;;5079383;28;20058;-60
2023/07/18 12:29:30;;;;;;;0.50;0.30;;;28.30;42.20;;;;;;5081557;28;20028;-60
2023/07/18 12:31:56;;;;;;;0.20;0.20;;;28.30;42.20;;;;;;5078746;28;20078;-59
2023/07/18 12:34:22;;;;;;;0.40;0.20;;;28.40;42.40;;;;;;5077512;28;20036;-60
2023/07/18 12:36:48;;;;;;;0.20;0.20;;;28.60;42.30;;;;;;5081593;28;20025;-59
2023/07/18 12:39:15;;;;;;;0.20;0.20;;;28.70;41.80;;;;;;5080400;28;20024;-59
2023/07/18 12:41:41;;;;;;;0.38;0.38;;;28.80;41.90;;;;;;5070463;28;20120;-59
2023/07/18 12:44:08;;;;;;;0.25;0.20;;;28.90;41.70;;;;;;5069765;28;20095;-59
2023/07/18 12:46:34;;;;;;;0.20;0.20;;;29.00;41.70;;;;;;5077355;28;20029;-59